Time;durP1;ratioP1;P1;durP2;ratioP2;P2;SDS_P1;SDS_P2;PMS_P1;PMS_P2;Temp;Humidity;BMP_temperature;BMP_pressure;BME280_temperature;BME280_humidity;BME280_pressure;Samples;Min_cycle;Max_cycle;Signal;HPM_P1;HPM_P2
2021/08/28 00:00:16;;;;;;;24.45;21.55;;;;;;;23.79;85.59;99944.16;5071514;28;20048;-69
2021/08/28 00:02:42;;;;;;;22.38;19.98;;;;;;;23.73;86.22;99954.88;5071327;28;20024;-69
2021/08/28 00:05:08;;;;;;;20.92;18.75;;;;;;;23.48;86.47;99918.59;5071441;28;20085;-68
2021/08/28 00:07:33;;;;;;;21.88;19.75;;;;;;;23.70;87.00;99950.53;5035897;28;20036;-66
2021/08/28 00:09:59;;;;;;;23.08;20.50;;;;;;;23.77;86.81;99955.66;5070715;28;20481;-67
2021/08/28 00:12:24;;;;;;;22.15;19.75;;;;;;;23.81;87.20;99949.38;5070883;28;20020;-68
2021/08/28 00:14:50;;;;;;;23.65;21.15;;;;;;;23.92;87.03;99942.09;5071295;28;20021;-66
2021/08/28 00:17:15;;;;;;;24.27;20.73;;;;;;;24.11;87.00;99946.88;5071100;28;20089;-66
2021/08/28 00:19:40;;;;;;;22.38;20.17;;;;;;;24.18;86.31;99948.44;5071249;28;20402;-66
2021/08/28 00:22:06;;;;;;;22.58;20.35;;;;;;;24.21;86.22;99953.59;5071343;28;20016;-68
2021/08/28 00:24:31;;;;;;;23.77;21.40;;;;;;;24.23;86.85;99947.38;5069399;28;20040;-67
2021/08/28 00:26:57;;;;;;;24.90;22.30;;;;;;;24.25;87.81;99944.72;5071330;28;20111;-64
2021/08/28 00:29:22;;;;;;;26.35;23.20;;;;;;;24.10;88.76;99945.13;5071324;28;20032;-68
2021/08/28 00:31:48;;;;;;;26.17;23.70;;;;;;;23.97;89.88;99945.47;5070980;28;20021;-66
2021/08/28 00:34:13;;;;;;;28.45;25.50;;;;;;;23.95;91.07;99947.31;5071420;28;20032;-66
2021/08/28 00:36:38;;;;;;;28.45;25.55;;;;;;;23.90;91.11;99951.75;5070711;28;20032;-64
2021/08/28 00:39:04;;;;;;;28.50;25.50;;;;;;;23.92;90.86;99949.16;5070650;28;20028;-67
2021/08/28 00:41:29;;;;;;;28.60;25.65;;;;;;;23.83;91.86;99947.59;5071016;28;20456;-62
2021/08/28 00:43:55;;;;;;;28.48;25.67;;;;;;;23.79;91.25;99946.81;5074754;28;20040;-67
2021/08/28 00:46:21;;;;;;;28.85;25.83;;;;;;;23.68;92.34;99952.34;5075025;28;20021;-71
2021/08/28 00:48:47;;;;;;;28.95;25.88;;;;;;;23.64;92.42;99950.69;5074824;28;20032;-64
2021/08/28 00:51:13;;;;;;;30.52;27.48;;;;;;;23.66;93.81;99951.50;5074763;28;20025;-64
2021/08/28 00:53:39;;;;;;;30.55;27.48;;;;;;;23.81;94.50;99959.94;5074980;28;20028;-64
2021/08/28 00:56:05;;;;;;;33.58;29.98;;;;;;;23.73;95.38;99953.09;5074825;28;20032;-62
2021/08/28 00:58:30;;;;;;;32.78;29.40;;;;;;;23.39;96.94;99911.78;5074540;28;20025;-61
2021/08/28 01:01:01;;;;;;;32.97;29.73;;;;;;;23.56;96.81;99961.44;5074059;28;20045;-65
2021/08/28 01:03:30;;;;;;;32.70;29.50;;;;;;;23.53;95.84;99950.09;5074512;28;20032;-65
2021/08/28 01:06:02;;;;;;;31.15;28.02;;;;;;;23.48;95.08;99963.38;5067378;28;20036;-66
2021/08/28 01:08:30;;;;;;;29.13;26.50;;;;;;;23.12;93.48;99930.88;5047917;28;20068;-66
2021/08/28 01:11:18;;;;;;;29.38;26.58;;;;;;;22.90;95.29;99953.28;5073918;28;20464;-65
2021/08/28 01:13:49;;;;;;;31.23;28.23;;;;;;;22.48;96.67;99921.75;4975886;28;20544;-67
2021/08/28 01:16:17;;;;;;;31.58;28.58;;;;;;;22.73;97.19;99956.28;4977104;28;20050;-69
2021/08/28 01:18:45;;;;;;;32.17;28.88;;;;;;;22.82;97.72;99963.13;4956590;28;20055;-68
2021/08/28 01:21:30;;;;;;;33.65;30.15;;;;;;;23.07;97.28;99960.78;4972895;28;20038;-68
2021/08/28 01:23:59;;;;;;;32.88;29.45;;;;;;;23.28;96.96;99958.59;4972735;28;20089;-67
2021/08/28 01:26:30;;;;;;;34.08;30.67;;;;;;;23.44;96.65;99953.84;4973075;28;20030;-68
2021/08/28 01:29:18;;;;;;;35.92;32.35;;;;;;;23.55;96.62;99951.78;4972689;28;20073;-66
2021/08/28 01:31:46;;;;;;;35.97;32.40;;;;;;;23.57;96.09;99957.03;4972638;28;20047;-68
2021/08/28 01:34:12;;;;;;;36.47;32.97;;;;;;;23.69;96.31;99956.72;4973167;28;20034;-68
2021/08/28 01:36:38;;;;;;;37.08;33.22;;;;;;;23.61;95.17;99924.41;4972952;28;20031;-72
2021/08/28 01:39:04;;;;;;;37.08;33.22;;;;;;;23.82;95.42;99956.41;4973113;28;20031;-68
2021/08/28 01:41:30;;;;;;;37.13;33.47;;;;;;;23.75;95.54;99956.56;4972744;28;20035;-68
2021/08/28 01:43:57;;;;;;;37.00;33.40;;;;;;;23.78;95.72;99960.03;4973040;28;20053;-68
2021/08/28 01:46:24;;;;;;;37.83;33.88;;;;;;;23.77;95.70;99955.66;4973276;28;20058;-68
2021/08/28 01:48:49;;;;;;;37.33;33.30;;;;;;;23.70;96.24;99953.19;4973161;28;20042;-68
2021/08/28 01:51:16;;;;;;;38.35;34.55;;;;;;;23.76;96.82;99957.41;5045652;28;20039;-68
2021/08/28 01:53:41;;;;;;;37.22;33.15;;;;;;;23.82;97.21;99959.03;5073155;28;20028;-68
2021/08/28 01:56:09;;;;;;;37.42;33.65;;;;;;;23.87;96.92;99950.09;5073635;28;20032;-69
2021/08/28 01:58:34;;;;;;;40.15;35.83;;;;;;;23.88;96.66;99959.72;5074214;28;20061;-68
2021/08/28 02:01:00;;;;;;;39.00;33.42;;;;;;;23.94;95.95;99956.09;5073953;28;20060;-69
2021/08/28 02:03:25;;;;;;;39.08;34.80;;;;;;;23.86;95.93;99952.75;5073789;28;20398;-68
2021/08/28 02:05:56;;;;;;;47.70;37.38;;;;;;;23.95;95.83;99960.47;5073768;28;20032;-68
2021/08/28 02:08:28;;;;;;;53.92;36.10;;;;;;;23.90;96.52;99959.69;5073484;28;20143;-68
2021/08/28 02:11:09;;;;;;;51.47;36.65;;;;;;;23.61;95.41;99902.47;5073401;28;20103;-68
2021/08/28 02:13:43;;;;;;;55.45;36.35;;;;;;;23.87;96.09;99970.31;5073559;28;20024;-68
2021/08/28 02:16:14;;;;;;;40.70;33.92;;;;;;;23.76;95.78;99949.50;5038350;28;20032;-68
2021/08/28 02:18:52;;;;;;;39.83;35.63;;;;;;;23.77;95.86;99953.03;5073551;28;20024;-68
2021/08/28 02:21:20;;;;;;;41.53;35.65;;;;;;;23.76;96.36;99960.03;5073254;28;20028;-68
2021/08/28 02:23:50;;;;;;;44.10;37.15;;;;;;;23.78;96.94;99966.16;5073761;28;20028;-69
2021/08/28 02:26:19;;;;;;;53.67;37.38;;;;;;;23.84;96.67;99965.09;5073454;28;20403;-68
2021/08/28 02:29:05;;;;;;;54.47;38.30;;;;;;;23.86;96.75;99971.22;5073258;28;20043;-68
2021/08/28 02:31:42;;;;;;;63.72;41.22;;;;;;;23.68;97.96;99965.53;5072446;28;20122;-68
2021/08/28 02:34:09;;;;;;;75.05;43.63;;;;;;;23.70;98.05;99969.00;5073345;28;20024;-67
2021/08/28 02:36:38;;;;;;;60.15;42.90;;;;;;;23.82;97.66;99975.69;5073141;28;20072;-68
2021/08/28 02:39:04;;;;;;;68.63;42.22;;;;;;;23.84;97.08;99975.66;5072972;28;20025;-68
2021/08/28 02:41:30;;;;;;;65.47;44.15;;;;;;;23.77;96.99;99974.97;5072733;28;20034;-68
2021/08/28 02:43:57;;;;;;;48.03;40.65;;;;;;;23.84;96.58;99980.94;5072784;28;20107;-68
2021/08/28 02:46:26;;;;;;;44.88;39.20;;;;;;;23.67;96.46;99947.97;5072818;28;20505;-68
2021/08/28 02:48:54;;;;;;;42.90;38.30;;;;;;;23.81;95.82;99973.13;5072848;28;20028;-68
2021/08/28 02:51:20;;;;;;;42.22;37.75;;;;;;;23.86;96.17;99987.91;5072955;28;20025;-68
2021/08/28 02:53:47;;;;;;;42.83;38.40;;;;;;;23.80;96.77;99987.19;5072599;28;20032;-68
2021/08/28 02:56:14;;;;;;;46.38;38.05;;;;;;;23.84;96.49;99988.84;5072995;28;20028;-68
2021/08/28 02:58:39;;;;;;;44.97;38.30;;;;;;;23.88;95.84;99990.50;5072447;28;20060;-68
2021/08/28 03:01:07;;;;;;;42.88;38.35;;;;;;;23.88;96.02;99993.16;5072953;28;20106;-67
2021/08/28 03:03:34;;;;;;;45.47;40.10;;;;;;;23.86;95.84;99987.91;5072581;28;20031;-68
2021/08/28 03:06:00;;;;;;;42.08;37.58;;;;;;;23.92;95.07;99989.53;5071379;28;20039;-68
2021/08/28 03:08:26;;;;;;;41.85;36.42;;;;;;;23.95;94.47;99985.97;5072142;28;20027;-68
2021/08/28 03:10:53;;;;;;;40.40;36.28;;;;;;;23.94;94.43;99994.78;5072283;28;20420;-66
2021/08/28 03:13:20;;;;;;;40.25;35.97;;;;;;;23.85;94.71;99993.22;5054268;28;20024;-68
2021/08/28 03:15:47;;;;;;;39.58;35.28;;;;;;;23.90;94.42;99997.47;5072454;28;20028;-68
2021/08/28 03:18:17;;;;;;;38.75;34.58;;;;;;;23.92;94.04;99991.34;5010546;28;20048;-68
2021/08/28 03:20:46;;;;;;;39.65;34.85;;;;;;;23.95;93.64;100005.31;5010555;28;20034;-68
2021/08/28 03:23:14;;;;;;;43.03;36.33;;;;;;;23.99;94.15;100006.94;5010035;28;20034;-68
2021/08/28 03:25:41;;;;;;;38.67;34.67;;;;;;;23.95;93.60;99993.88;5010076;28;20030;-68
2021/08/28 03:28:07;;;;;;;39.38;35.20;;;;;;;23.98;93.68;100005.19;5010368;28;20261;-67
2021/08/28 03:30:33;;;;;;;43.83;35.20;;;;;;;24.03;93.40;100000.66;5010170;28;20034;-68
2021/08/28 03:32:59;;;;;;;39.28;35.08;;;;;;;23.93;93.65;100008.88;5010080;28;20148;-68
2021/08/28 03:35:25;;;;;;;38.58;34.65;;;;;;;23.97;93.30;100008.75;5010064;28;20065;-68
2021/08/28 03:37:50;;;;;;;36.10;32.17;;;;;;;23.97;93.21;100011.38;5009893;28;20034;-68
2021/08/28 03:40:17;;;;;;;36.38;32.63;;;;;;;23.95;93.20;100007.94;4977251;28;20128;-68
2021/08/28 03:42:43;;;;;;;35.22;31.60;;;;;;;23.86;93.18;100019.56;5010303;28;20029;-68
2021/08/28 03:45:11;;;;;;;33.65;30.17;;;;;;;23.80;93.40;100014.44;5010081;28;20036;-68
2021/08/28 03:47:41;;;;;;;33.83;30.33;;;;;;;23.92;93.14;100022.97;5009758;28;20516;-68
2021/08/28 03:50:07;;;;;;;33.92;30.63;;;;;;;23.88;93.65;100019.50;5064033;28;20426;-68
2021/08/28 03:52:33;;;;;;;34.42;30.77;;;;;;;23.87;93.22;100025.69;5071678;28;20028;-68
2021/08/28 03:54:58;;;;;;;34.70;30.77;;;;;;;23.88;93.07;100019.50;5071642;28;20033;-67
2021/08/28 03:57:24;;;;;;;33.28;29.92;;;;;;;23.88;92.53;100016.88;5071659;28;20028;-68
2021/08/28 03:59:49;;;;;;;36.05;32.25;;;;;;;23.84;93.09;100029.25;5071412;28;20135;-68
2021/08/28 04:02:14;;;;;;;36.22;32.30;;;;;;;23.79;93.32;100028.50;5053707;28;20017;-68
2021/08/28 04:04:40;;;;;;;37.38;31.95;;;;;;;23.77;93.46;100030.31;5071490;28;20414;-68
2021/08/28 04:07:05;;;;;;;37.00;33.10;;;;;;;23.84;93.25;100033.66;5071682;28;20146;-68
2021/08/28 04:09:31;;;;;;;43.83;34.20;;;;;;;23.81;93.24;100031.09;5053543;28;20020;-68
2021/08/28 04:11:57;;;;;;;44.63;34.55;;;;;;;23.78;93.90;100033.81;5071830;28;20157;-68
2021/08/28 04:14:22;;;;;;;39.10;34.80;;;;;;;23.69;94.27;100035.78;5071511;28;20029;-68
2021/08/28 04:16:48;;;;;;;37.60;33.67;;;;;;;23.54;94.88;100033.50;5071121;28;20025;-68
2021/08/28 04:19:13;;;;;;;45.10;34.72;;;;;;;23.22;96.08;100003.50;5071649;28;20025;-68
2021/08/28 04:21:39;;;;;;;41.15;36.80;;;;;;;23.18;97.42;100033.44;5071410;28;20021;-68
2021/08/28 04:24:04;;;;;;;40.55;35.97;;;;;;;23.18;97.65;100038.69;5071215;28;20110;-68
2021/08/28 04:26:30;;;;;;;40.28;36.13;;;;;;;23.20;97.68;100037.78;5071495;28;20064;-68
2021/08/28 04:28:56;;;;;;;41.08;36.10;;;;;;;23.20;98.47;100042.16;5071607;28;20032;-67
2021/08/28 04:31:22;;;;;;;43.70;36.35;;;;;;;22.97;98.36;100018.94;5071160;28;20609;-68
2021/08/28 04:33:48;;;;;;;44.72;36.25;;;;;;;23.02;99.13;100044.28;5071143;28;20086;-68
2021/08/28 04:36:14;;;;;;;42.55;38.10;;;;;;;22.90;100.00;100034.88;5071417;28;20020;-68
2021/08/28 04:38:39;;;;;;;43.38;38.90;;;;;;;22.94;100.00;100047.06;5070935;28;20082;-68
2021/08/28 04:41:04;;;;;;;43.35;38.78;;;;;;;22.80;100.00;100027.22;5071095;28;20031;-68
2021/08/28 04:43:30;;;;;;;44.70;39.92;;;;;;;22.86;100.00;100043.72;5049978;28;20555;-69
2021/08/28 04:45:55;;;;;;;47.80;42.65;;;;;;;22.87;100.00;100048.09;5049525;28;20115;-72
2021/08/28 04:48:21;;;;;;;47.13;42.42;;;;;;;22.99;100.00;100056.63;5071287;28;20052;-68
2021/08/28 04:50:46;;;;;;;50.95;45.47;;;;;;;23.08;100.00;100051.19;5068909;28;20031;-68
2021/08/28 04:53:12;;;;;;;49.47;44.10;;;;;;;23.07;100.00;100044.19;5070973;28;20036;-68
2021/08/28 04:55:37;;;;;;;49.83;44.50;;;;;;;23.16;100.00;100046.63;5070941;28;20028;-68
2021/08/28 04:58:03;;;;;;;50.85;44.88;;;;;;;23.22;100.00;100040.38;5071249;28;20475;-68
2021/08/28 05:00:28;;;;;;;50.95;44.85;;;;;;;23.39;100.00;100042.63;5070906;28;20044;-68
2021/08/28 05:02:54;;;;;;;45.60;41.00;;;;;;;23.02;99.48;99985.50;5070701;28;20024;-68
2021/08/28 05:05:19;;;;;;;46.58;41.42;;;;;;;23.39;99.05;100047.88;5048410;28;20072;-68
2021/08/28 05:07:45;;;;;;;44.53;39.72;;;;;;;23.43;98.95;100047.78;5060858;28;20024;-68
2021/08/28 05:10:10;;;;;;;41.40;37.05;;;;;;;23.49;97.70;100057.34;5052810;28;20115;-68
2021/08/28 05:12:36;;;;;;;36.67;33.08;;;;;;;23.49;94.83;100061.72;5068828;28;20036;-68
2021/08/28 05:15:02;;;;;;;33.97;30.58;;;;;;;23.50;93.05;100063.47;5067521;28;20032;-67
2021/08/28 05:17:28;;;;;;;33.05;29.80;;;;;;;23.15;92.96;99996.63;5065534;28;20028;-68
2021/08/28 05:19:54;;;;;;;31.48;28.27;;;;;;;23.51;92.40;100062.56;5064074;28;20112;-68
2021/08/28 05:22:20;;;;;;;30.15;27.05;;;;;;;23.50;91.41;100061.72;5059708;28;20108;-67
2021/08/28 05:24:45;;;;;;;28.77;25.75;;;;;;;23.45;90.14;100057.44;5061212;28;20028;-67
2021/08/28 05:27:11;;;;;;;25.73;23.17;;;;;;;23.31;89.02;100049.84;5059503;28;20078;-69
2021/08/28 05:29:36;;;;;;;25.23;22.48;;;;;;;23.40;88.17;100063.69;5026790;28;20064;-66
2021/08/28 05:32:02;;;;;;;22.40;20.17;;;;;;;23.44;87.91;100051.31;5064683;28;20494;-64
2021/08/28 05:34:27;;;;;;;24.15;18.13;;;;;;;23.49;85.52;100061.72;5062402;28;20025;-71
2021/08/28 05:36:52;;;;;;;20.13;17.98;;;;;;;23.36;83.80;100047.97;5066392;28;20032;-68
2021/08/28 05:39:18;;;;;;;19.98;17.60;;;;;;;23.17;84.09;100023.81;5068071;28;20388;-68
2021/08/28 05:41:43;;;;;;;19.88;16.00;;;;;;;23.42;82.12;100061.84;5066015;28;20101;-69
2021/08/28 05:44:09;;;;;;;17.13;15.20;;;;;;;23.36;82.74;100051.47;5069712;28;20112;-67
2021/08/28 05:46:34;;;;;;;18.05;15.63;;;;;;;23.41;81.24;100056.63;5062889;28;20017;-66
2021/08/28 05:49:00;;;;;;;19.15;15.70;;;;;;;23.42;81.30;100056.59;5062886;28;20548;-68
2021/08/28 05:51:25;;;;;;;18.27;14.68;;;;;;;23.50;81.12;100060.81;5070502;28;20037;-68
2021/08/28 05:53:50;;;;;;;19.67;16.17;;;;;;;23.55;80.12;100054.56;5065147;28;20402;-68
2021/08/28 05:56:16;;;;;;;21.95;15.73;;;;;;;23.57;80.25;100065.06;5068567;28;20479;-69
2021/08/28 05:58:42;;;;;;;17.08;15.25;;;;;;;23.44;80.34;100032.88;5073720;28;20021;-69
2021/08/28 06:01:07;;;;;;;18.95;16.65;;;;;;;23.64;80.05;100057.84;5073354;28;20048;-68
2021/08/28 06:03:33;;;;;;;19.83;17.27;;;;;;;23.49;80.77;100030.09;5073510;28;20097;-68
2021/08/28 06:05:58;;;;;;;19.10;17.10;;;;;;;23.77;81.26;100061.09;5073457;28;20493;-68
2021/08/28 06:08:23;;;;;;;23.58;19.25;;;;;;;23.82;81.11;100064.47;5073428;28;20029;-68
2021/08/28 06:10:49;;;;;;;29.60;22.05;;;;;;;23.85;81.40;100060.00;5073616;28;20033;-68
2021/08/28 06:13:14;;;;;;;24.58;21.98;;;;;;;23.88;82.09;100065.16;5073393;28;20031;-69
2021/08/28 06:15:40;;;;;;;33.50;25.52;;;;;;;23.96;82.96;100064.16;5073288;28;20028;-69
2021/08/28 06:18:05;;;;;;;26.20;23.08;;;;;;;23.87;83.36;100054.69;5073019;28;20478;-68
2021/08/28 06:20:31;;;;;;;29.30;25.58;;;;;;;23.97;84.31;100050.06;5073094;28;20055;-68
2021/08/28 06:22:56;;;;;;;27.05;22.17;;;;;;;24.11;83.69;100062.91;5072956;28;20159;-68
2021/08/28 06:25:22;;;;;;;29.35;26.20;;;;;;;24.19;85.13;100055.66;5073419;28;20031;-68
2021/08/28 06:27:47;;;;;;;32.63;26.75;;;;;;;24.21;84.62;100048.56;5073172;28;20036;-68
2021/08/28 06:30:14;;;;;;;34.67;29.38;;;;;;;24.12;86.29;100020.66;5073131;28;20104;-68
2021/08/28 06:32:39;;;;;;;37.22;30.67;;;;;;;24.36;87.42;100055.19;5072875;28;20442;-66
2021/08/28 06:35:05;;;;;;;39.35;32.75;;;;;;;24.50;87.26;100058.34;5072780;28;20020;-68
2021/08/28 06:37:30;;;;;;;38.45;33.13;;;;;;;24.35;87.16;100032.34;5072644;28;20056;-66
2021/08/28 06:39:56;;;;;;;38.25;33.25;;;;;;;24.48;88.13;100064.56;5072315;28;20028;-68
2021/08/28 06:42:21;;;;;;;39.70;35.42;;;;;;;24.40;88.89;100054.22;5072996;28;20029;-68
2021/08/28 06:44:47;;;;;;;42.08;37.65;;;;;;;24.51;89.29;100062.72;5072662;28;20031;-68
2021/08/28 06:47:12;;;;;;;42.90;38.00;;;;;;;24.62;89.49;100056.28;5072787;28;20028;-68
2021/08/28 06:49:38;;;;;;;40.33;35.92;;;;;;;24.61;89.00;100058.06;5072678;28;20025;-68
2021/08/28 06:52:04;;;;;;;38.28;34.38;;;;;;;24.71;88.65;100046.34;5072642;28;20036;-70
2021/08/28 06:54:29;;;;;;;38.05;34.08;;;;;;;24.82;88.11;100046.06;5072330;28;20024;-68
2021/08/28 06:56:55;;;;;;;44.88;36.85;;;;;;;25.03;89.83;100039.28;5072205;28;20466;-68
2021/08/28 06:59:20;;;;;;;38.35;34.45;;;;;;;25.14;88.03;100043.38;5037105;28;20041;-68
2021/08/28 07:01:45;;;;;;;39.95;35.65;;;;;;;25.25;88.20;100041.25;5072400;28;20621;-69
2021/08/28 07:04:11;;;;;;;34.38;29.90;;;;;;;25.11;86.63;100039.03;5072402;28;20025;-67
2021/08/28 07:06:36;;;;;;;35.15;30.15;;;;;;;24.92;87.16;100051.91;5072191;28;20026;-69
2021/08/28 07:09:03;;;;;;;35.90;32.08;;;;;;;24.99;87.44;100042.06;5072321;28;20471;-68
2021/08/28 07:11:29;;;;;;;36.65;32.88;;;;;;;25.04;86.84;100038.34;5072270;28;20108;-68
2021/08/28 07:13:54;;;;;;;35.70;31.30;;;;;;;25.17;86.49;100043.25;5072085;28;20507;-68
2021/08/28 07:16:20;;;;;;;45.28;32.17;;;;;;;25.30;86.12;100041.13;5072029;28;20025;-68
2021/08/28 07:18:45;;;;;;;37.45;31.00;;;;;;;25.40;85.25;100036.47;5054403;28;20429;-68
2021/08/28 07:21:11;;;;;;;39.55;31.45;;;;;;;25.62;85.40;100037.50;5071704;28;20024;-68
2021/08/28 07:23:37;;;;;;;32.80;28.90;;;;;;;25.67;84.54;100021.47;5071530;28;20032;-68
2021/08/28 07:26:03;;;;;;;33.78;27.90;;;;;;;25.87;82.96;100027.88;5071759;28;20498;-68
2021/08/28 07:28:28;;;;;;;43.17;37.22;;;;;;;25.96;83.56;100030.22;5068696;28;20041;-67
2021/08/28 07:30:54;;;;;;;30.10;26.90;;;;;;;26.07;81.89;100021.94;5071680;28;20020;-68
2021/08/28 07:33:20;;;;;;;30.70;27.70;;;;;;;26.26;82.95;100023.03;5071584;28;20032;-68
2021/08/28 07:35:46;;;;;;;31.67;26.73;;;;;;;26.29;79.69;100001.75;5036152;28;20040;-68
2021/08/28 07:38:11;;;;;;;28.58;25.63;;;;;;;26.62;77.42;100024.41;5071713;28;20113;-68
2021/08/28 07:40:37;;;;;;;28.08;24.80;;;;;;;26.56;78.49;99977.81;5072030;28;20494;-68
2021/08/28 07:43:03;;;;;;;28.20;23.50;;;;;;;26.68;75.61;99959.75;5071786;28;20025;-68
2021/08/28 07:45:29;;;;;;;25.67;22.40;;;;;;;27.22;73.70;100008.03;5071967;28;20024;-68
2021/08/28 07:47:55;;;;;;;26.20;23.45;;;;;;;27.36;73.38;99999.53;5071620;28;20052;-68
2021/08/28 07:50:20;;;;;;;33.53;25.45;;;;;;;27.44;75.47;99992.13;5071529;28;20466;-68
2021/08/28 07:52:46;;;;;;;29.55;24.83;;;;;;;27.48;74.63;99999.06;5071112;28;20036;-68
2021/08/28 07:55:13;;;;;;;35.95;24.55;;;;;;;27.47;73.50;99997.34;5071634;28;20445;-68
2021/08/28 07:57:39;;;;;;;33.95;25.65;;;;;;;27.46;73.57;99998.25;5071769;28;20119;-68
2021/08/28 08:00:08;;;;;;;29.05;22.02;;;;;;;27.66;72.13;100001.88;5071270;28;20102;-68
2021/08/28 08:02:34;;;;;;;24.25;21.80;;;;;;;27.75;73.63;99994.41;5071412;28;20056;-68
2021/08/28 08:05:00;;;;;;;23.48;21.08;;;;;;;27.75;70.00;99970.53;5069971;28;20037;-68
2021/08/28 08:07:25;;;;;;;25.85;22.45;;;;;;;28.08;71.41;99987.75;5066899;28;20510;-73
2021/08/28 08:09:51;;;;;;;25.23;22.58;;;;;;;28.20;71.20;99979.25;5051143;28;20025;-68
2021/08/28 08:12:16;;;;;;;23.35;21.15;;;;;;;28.28;68.12;99980.72;5051164;28;20041;-67
2021/08/28 08:14:42;;;;;;;23.23;20.70;;;;;;;28.38;66.46;99979.34;5051045;28;20021;-68
2021/08/28 08:17:07;;;;;;;25.48;20.13;;;;;;;28.32;65.56;99953.94;5051267;28;20053;-68
2021/08/28 08:19:33;;;;;;;24.52;21.02;;;;;;;28.60;66.92;99970.41;5051182;28;20025;-68
2021/08/28 08:21:58;;;;;;;21.85;19.63;;;;;;;28.72;66.33;99969.84;5051530;28;20029;-68
2021/08/28 08:24:24;;;;;;;22.13;19.20;;;;;;;28.78;63.69;99966.91;5051289;28;20029;-68
2021/08/28 08:26:50;;;;;;;23.58;19.67;;;;;;;28.83;64.80;99962.25;5051124;28;20029;-67
2021/08/28 08:29:15;;;;;;;23.70;21.15;;;;;;;28.88;65.97;99964.69;5051187;28;20021;-68
2021/08/28 08:31:41;;;;;;;23.20;20.73;;;;;;;28.98;65.10;99955.34;5051126;28;20460;-68
2021/08/28 08:34:06;;;;;;;23.08;18.67;;;;;;;29.11;63.46;99952.09;5050934;28;20572;-67
2021/08/28 08:36:31;;;;;;;21.38;19.23;;;;;;;29.19;62.97;99944.63;5051138;28;20029;-66
2021/08/28 08:38:57;;;;;;;24.38;20.42;;;;;;;29.27;63.57;99949.53;5051140;28;20044;-66
2021/08/28 08:41:24;;;;;;;30.88;21.73;;;;;;;29.29;64.60;99943.25;5050921;28;20083;-68
2021/08/28 08:43:53;;;;;;;26.35;21.27;;;;;;;29.34;65.24;99948.34;5050927;28;20025;-67
2021/08/28 08:46:21;;;;;;;21.17;18.95;;;;;;;29.44;63.55;99944.28;5051066;28;20574;-68
2021/08/28 08:48:48;;;;;;;24.03;21.43;;;;;;;29.30;65.16;99899.78;5051017;28;20024;-68
2021/08/28 08:51:14;;;;;;;28.23;20.10;;;;;;;29.45;62.23;99906.13;5051369;28;20776;-68
2021/08/28 08:53:41;;;;;;;32.45;21.60;;;;;;;29.44;62.54;99907.06;5050899;28;20111;-68
2021/08/28 08:56:07;;;;;;;24.50;19.30;;;;;;;29.68;63.39;99931.56;5050753;28;20022;-68
2021/08/28 08:58:33;;;;;;;20.23;18.17;;;;;;;29.71;62.02;99930.53;5050850;28;20028;-68
2021/08/28 09:01:02;;;;;;;19.90;17.60;;;;;;;29.77;59.91;99940.84;5051199;28;20056;-68
2021/08/28 09:03:27;;;;;;;28.00;18.05;;;;;;;29.82;59.57;99933.50;5052559;28;20089;-67
2021/08/28 09:05:53;;;;;;;20.58;15.85;;;;;;;29.92;59.60;99925.91;5054783;28;20084;-68
2021/08/28 09:08:18;;;;;;;22.30;17.20;;;;;;;30.08;57.96;99923.28;5054545;28;20435;-68
2021/08/28 09:10:43;;;;;;;22.45;18.23;;;;;;;30.22;58.77;99929.69;5054798;28;20598;-68
2021/08/28 09:13:16;;;;;;;29.58;24.08;;;;;;;30.28;59.39;99924.03;5054630;28;20135;-68
2021/08/28 09:15:44;;;;;;;27.75;18.60;;;;;;;30.28;58.88;99916.03;5036580;28;20029;-68
2021/08/28 09:18:09;;;;;;;21.45;19.13;;;;;;;30.41;59.82;99905.59;5054515;28;20025;-68
2021/08/28 09:20:35;;;;;;;20.95;16.92;;;;;;;30.54;57.71;99911.13;5054639;28;20036;-68
2021/08/28 09:23:03;;;;;;;26.58;17.55;;;;;;;30.65;57.44;99903.38;5054230;28;20028;-68
2021/08/28 09:25:29;;;;;;;26.70;16.40;;;;;;;30.75;54.93;99901.06;5054157;28;20032;-68
2021/08/28 09:27:55;;;;;;;26.00;16.48;;;;;;;30.89;55.95;99903.78;5056247;28;20036;-68
2021/08/28 09:30:27;;;;;;;19.58;16.70;;;;;;;30.86;55.53;99903.13;5071699;28;20017;-69
2021/08/28 09:32:59;;;;;;;21.40;16.17;;;;;;;30.96;54.90;99891.84;5067525;28;20017;-68
2021/08/28 09:35:28;;;;;;;18.15;15.85;;;;;;;30.81;54.10;99861.59;5063572;28;20398;-70
2021/08/28 09:37:57;;;;;;;23.60;15.48;;;;;;;31.19;54.06;99895.03;5064897;28;20020;-69
2021/08/28 09:40:24;;;;;;;;;;;;;;;31.28;52.16;99886.47;5063818;28;20032;-68
2021/08/28 09:43:01;;;;;;;21.92;16.65;;;;;;;31.31;54.54;99880.09;5073320;28;19916;-70
2021/08/28 09:45:27;;;;;;;18.63;15.10;;;;;;;31.38;53.77;99885.91;5072646;28;20082;-67
2021/08/28 09:47:54;;;;;;;16.67;14.82;;;;;;;31.52;53.15;99879.78;5026578;28;20045;-69
2021/08/28 09:50:35;;;;;;;18.10;14.07;;;;;;;31.17;54.11;99874.72;5056309;28;20025;-68
2021/08/28 09:53:08;;;;;;;16.00;13.88;;;;;;;31.26;51.85;99867.03;5053728;28;20025;-68
2021/08/28 09:55:35;;;;;;;19.02;14.05;;;;;;;30.94;49.46;99866.22;5062547;28;20028;-69
2021/08/28 09:58:03;;;;;;;19.02;13.75;;;;;;;31.20;51.25;99879.88;5063749;28;20453;-70
2021/08/28 10:00:30;;;;;;;20.95;14.27;;;;;;;31.44;50.11;99872.22;5069136;28;20045;-65
2021/08/28 10:03:05;;;;;;;22.65;15.30;;;;;;;31.56;52.30;99874.16;5067726;28;20036;-65
2021/08/28 10:05:36;;;;;;;19.02;15.65;;;;;;;31.78;54.02;99871.06;5070829;28;20533;-65
2021/08/28 10:08:07;;;;;;;15.77;13.43;;;;;;;31.42;51.22;99864.31;5070800;28;20044;-66
2021/08/28 10:10:35;;;;;;;18.20;15.02;;;;;;;31.82;54.51;99854.88;5070805;28;20094;-64
2021/08/28 10:13:02;;;;;;;19.42;14.50;;;;;;;31.96;49.40;99830.84;5073174;28;20044;-66
2021/08/28 10:15:31;;;;;;;16.27;14.55;;;;;;;32.38;50.33;99858.47;5070351;28;20028;-63
2021/08/28 10:17:57;;;;;;;22.47;13.90;;;;;;;32.40;48.15;99827.19;5047118;28;20021;-66
2021/08/28 10:20:24;;;;;;;19.33;13.32;;;;;;;32.43;47.36;99847.50;5055622;28;20382;-66
2021/08/28 10:22:54;;;;;;;21.52;14.45;;;;;;;32.50;49.20;99854.16;5051538;28;20057;-68
2021/08/28 10:25:23;;;;;;;17.77;14.10;;;;;;;32.65;47.86;99846.97;5057490;28;20028;-66
2021/08/28 10:27:50;;;;;;;18.52;13.38;;;;;;;32.77;47.22;99839.97;5072490;28;20083;-63
2021/08/28 10:30:17;;;;;;;16.10;14.23;;;;;;;32.79;47.63;99839.88;5072064;28;20077;-63
2021/08/28 10:32:43;;;;;;;18.67;13.73;;;;;;;32.78;48.72;99833.69;5069294;28;20033;-66
2021/08/28 10:35:13;;;;;;;16.17;12.80;;;;;;;32.82;46.40;99823.63;5056052;28;20040;-65
2021/08/28 10:37:38;;;;;;;18.98;13.52;;;;;;;32.99;47.39;99830.53;5061967;28;20074;-65
2021/08/28 10:40:08;;;;;;;25.58;15.27;;;;;;;32.85;47.26;99810.94;5056439;28;20025;-70
2021/08/28 10:42:36;;;;;;;26.63;15.18;;;;;;;33.24;46.90;99821.69;5053639;28;20032;-68
2021/08/28 10:45:02;;;;;;;20.75;13.02;;;;;;;33.37;44.84;99819.94;5043759;28;20036;-67
2021/08/28 10:47:30;;;;;;;23.67;14.13;;;;;;;33.31;45.03;99828.38;5049080;28;20033;-68
2021/08/28 10:50:02;;;;;;;16.38;13.05;;;;;;;33.44;44.94;99819.50;5054349;28;20021;-68
2021/08/28 10:52:27;;;;;;;20.65;12.48;;;;;;;33.57;43.65;99815.00;5063167;28;20037;-64
2021/08/28 10:54:54;;;;;;;19.40;14.35;;;;;;;33.54;45.63;99820.56;5053497;28;20025;-68
2021/08/28 10:57:25;;;;;;;17.88;12.35;;;;;;;33.67;45.93;99818.75;5055810;28;20036;-67
2021/08/28 11:00:03;;;;;;;15.93;11.98;;;;;;;33.52;42.77;99809.97;5054233;28;20052;-65
2021/08/28 11:02:55;;;;;;;16.00;12.60;;;;;;;33.33;43.59;99814.88;5053624;28;20031;-64
2021/08/28 11:05:27;;;;;;;18.83;12.48;;;;;;;33.13;43.85;99813.56;5052284;28;20029;-70
2021/08/28 11:07:56;;;;;;;19.60;12.10;;;;;;;32.87;45.09;99810.81;5051918;28;20115;-70
2021/08/28 11:10:25;;;;;;;17.15;12.50;;;;;;;32.89;46.68;99803.56;5053794;28;20029;-66
2021/08/28 11:12:58;;;;;;;14.57;11.30;;;;;;;32.69;44.52;99770.97;5036607;28;20070;-67